Data for 12/15/2012

Time Sea-Level Adjusted Pressure Absolute Pressure Temperature Relative Humidity Dew Point   
(mb) (inHg) (mb) (inHg) (C) (F) (%) (C) (F)
00:05 1010 29.83 839 24.78 -3.7 25.4 94 -4.5 23.9
00:10 1009 29.8 839 24.78 -3.7 25.4 94 -4.5 23.8
00:15 1009 29.8 839 24.78 -3.7 25.3 94 -4.6 23.8
00:20 1009 29.8 839 24.78 -3.8 25.2 94 -4.7 23.6
00:25 1009 29.8 839 24.78 -3.8 25.1 94 -4.7 23.5
00:30 1010 29.83 839 24.78 -3.9 25 94 -4.7 23.5
00:35 1010 29.83 839 24.78 -4 24.8 94 -4.8 23.3
00:40 1010 29.83 839 24.78 -4.1 24.6 95 -4.8 23.3
00:45 1010 29.83 839 24.78 -4 24.8 95 -4.7 23.6
00:50 1010 29.83 839 24.78 -3.9 25.1 95 -4.6 23.7
00:55 1010 29.83 839 24.78 -3.8 25.2 95 -4.5 23.9
01:00 1010 29.83 839 24.78 -3.8 25.1 94 -4.6 23.6
01:05 1010 29.83 839 24.78 -4 24.9 94 -4.8 23.4
01:10 1010 29.83 839 24.78 -4.1 24.6 94 -4.9 23.2
01:15 1010 29.83 839 24.78 -4.2 24.5 95 -4.9 23.2
01:20 1010 29.83 839 24.78 -4.2 24.4 94 -5 23
01:25 1010 29.83 839 24.78 -4.3 24.2 95 -5.1 22.9
01:30 1010 29.83 839 24.78 -4.3 24.2 95 -5.1 22.9
01:35 1010 29.83 839 24.78 -4.4 24.2 95 -5.1 22.9
01:40 1010 29.83 839 24.78 -4.3 24.2 95 -5.1 22.9
01:45 1010 29.83 839 24.78 -4.3 24.3 95 -5 23.1
01:50 1010 29.83 839 24.78 -4.2 24.4 95 -5 23.1
01:55 1010 29.83 839 24.78 -4.2 24.5 95 -4.9 23.1
02:00 1010 29.83 839 24.78 -4.2 24.5 95 -4.9 23.2
02:05 1010 29.83 839 24.78 -4.2 24.5 95 -4.9 23.2
02:10 1010 29.83 839 24.78 -4.1 24.6 95 -4.8 23.3
02:15 1010 29.83 839 24.78 -4 24.7 95 -4.8 23.4
02:20 1010 29.83 839 24.78 -4 24.8 95 -4.7 23.5
02:25 1010 29.83 839 24.78 -4 24.8 95 -4.7 23.5
02:30 1010 29.83 839 24.78 -4 24.9 95 -4.7 23.5
02:35 1010 29.83 839 24.78 -4 24.8 94 -4.8 23.4
02:40 1010 29.83 839 24.78 -4 24.7 95 -4.8 23.4
02:45 1010 29.83 839 24.78 -4.1 24.7 95 -4.8 23.4
02:50 1010 29.83 839 24.78 -4.1 24.6 95 -4.9 23.2
02:55 1010 29.83 839 24.78 -4.1 24.6 95 -4.8 23.3
03:00 1010 29.83 839 24.78 -4 24.7 95 -4.7 23.5
03:05 1010 29.83 839 24.78 -3.9 24.9 95 -4.7 23.6
03:10 1010 29.83 839 24.78 -3.9 24.9 94 -4.7 23.5
03:15 1010 29.83 839 24.78 -3.9 24.9 95 -4.7 23.6
03:20 1010 29.83 839 24.78 -3.9 24.9 95 -4.7 23.5
03:25 1010 29.83 839 24.78 -4 24.8 95 -4.7 23.5
03:30 1010 29.83 839 24.78 -4 24.7 95 -4.8 23.4
03:35 1010 29.83 839 24.78 -4.1 24.7 95 -4.8 23.4
03:40 1010 29.83 839 24.78 -4 24.7 95 -4.7 23.5
03:45 1010 29.83 839 24.78 -4 24.8 95 -4.7 23.5
03:50 1010 29.83 839 24.78 -4 24.9 95 -4.7 23.6
03:55 1010 29.83 839 24.78 -3.9 24.9 95 -4.7 23.6
04:00 1010 29.83 839 24.78 -3.8 25.2 95 -4.5 23.9
04:05 1010 29.83 839 24.78 -3.7 25.4 94 -4.5 23.9
04:10 1010 29.83 839 24.78 -3.6 25.5 94 -4.5 23.9
04:15 1010 29.83 839 24.78 -3.6 25.5 93 -4.5 23.8
04:20 1010 29.83 839 24.78 -3.7 25.3 94 -4.6 23.7
04:25 1010 29.83 839 24.78 -3.8 25.2 94 -4.6 23.7
04:30 1010 29.83 839 24.78 -3.8 25.2 94 -4.6 23.7
04:35 1010 29.83 839 24.78 -3.9 25.1 94 -4.7 23.6
04:40 1010 29.83 839 24.78 -3.9 25 94 -4.7 23.5
04:45 1010 29.83 839 24.78 -3.9 25 94 -4.7 23.5
04:50 1010 29.83 839 24.78 -3.9 24.9 94 -4.7 23.5
04:55 1010 29.83 839 24.78 -3.9 25 94 -4.7 23.6
05:00 1010 29.83 839 24.78 -3.9 25 94 -4.7 23.6
05:05 1010 29.83 839 24.78 -3.8 25.1 95 -4.6 23.7
05:10 1010 29.83 839 24.78 -3.8 25.1 95 -4.6 23.8
05:15 1010 29.83 839 24.78 -3.8 25.2 95 -4.5 23.9
05:20 1010 29.83 839 24.78 -3.7 25.3 95 -4.4 24
05:25 1010 29.83 839 24.78 -3.7 25.4 95 -4.4 24
05:30 1010 29.83 839 24.78 -3.7 25.3 94 -4.6 23.7
05:35 1010 29.83 839 24.78 -4 24.9 93 -4.9 23.2
05:40 1010 29.83 839 24.78 -4.2 24.4 94 -5.1 22.9
05:45 1010 29.83 839 24.78 -4.3 24.2 94 -5.1 22.8
05:50 1010 29.83 839 24.78 -4.5 23.9 94 -5.3 22.5
05:55 1010 29.83 839 24.78 -4.7 23.5 95 -5.4 22.3
06:00 1010 29.83 839 24.78 -4.7 23.6 96 -5.3 22.5
06:05 1010 29.83 839 24.78 -4.7 23.6 96 -5.3 22.5
06:10 1010 29.83 839 24.78 -4.7 23.6 96 -5.3 22.5
06:15 1010 29.83 840 24.81 -4.6 23.7 96 -5.2 22.6
06:20 1010 29.83 840 24.81 -4.6 23.8 96 -5.1 22.8
06:25 1010 29.83 839 24.78 -4.4 24 96 -5 22.9
06:30 1010 29.83 839 24.78 -4.5 24 95 -5.1 22.8
06:35 1010 29.83 840 24.81 -4.5 24 95 -5.1 22.8
06:40 1010 29.83 840 24.81 -4.5 23.9 95 -5.2 22.6
06:45 1010 29.83 840 24.81 -4.6 23.7 95 -5.3 22.4
06:50 1010 29.83 840 24.81 -4.7 23.5 95 -5.5 22.1
06:55 1010 29.83 840 24.81 -4.9 23.2 95 -5.6 21.9
07:00 1010 29.83 840 24.81 -5 23.1 95 -5.7 21.8
07:05 1010 29.83 840 24.81 -5 23 95 -5.7 21.8
07:10 1010 29.83 840 24.81 -5 23 95 -5.7 21.8
07:15 1010 29.83 840 24.81 -5 23 95 -5.7 21.7
07:20 1010 29.83 840 24.81 -4.9 23.1 95 -5.6 21.9
07:25 1010 29.83 840 24.81 -4.9 23.3 95 -5.6 22
07:30 1010 29.83 840 24.81 -4.8 23.3 94 -5.6 21.9
07:35 1010 29.83 840 24.81 -4.9 23.1 95 -5.7 21.8
07:40 1010 29.83 840 24.81 -5 23.1 94 -5.7 21.7
07:45 1011 29.85 840 24.81 -5 23 95 -5.8 21.6
07:50 1011 29.85 840 24.81 -5 23.1 95 -5.7 21.7
07:55 1011 29.85 840 24.81 -4.9 23.3 95 -5.6 21.9
08:00 1011 29.85 840 24.81 -4.8 23.4 94 -5.5 22
08:05 1011 29.85 840 24.81 -4.7 23.5 94 -5.5 22
08:10 1011 29.85 840 24.81 -4.7 23.5 94 -5.5 22
08:15 1011 29.85 840 24.81 -4.7 23.6 94 -5.5 22.1
08:20 1011 29.85 840 24.81 -4.6 23.7 94 -5.5 22.2
08:25 1011 29.85 840 24.81 -4.6 23.7 94 -5.5 22.2
08:30 1011 29.85 840 24.81 -4.6 23.8 94 -5.4 22.2
08:35 1011 29.85 840 24.81 -4.6 23.7 93 -5.5 22.1
08:40 1011 29.85 840 24.81 -4.6 23.7 93 -5.5 22.1
08:45 1011 29.85 840 24.81 -4.6 23.6 94 -5.5 22.1
08:50 1011 29.85 840 24.81 -4.6 23.7 94 -5.5 22.1
08:55 1011 29.85 840 24.81 -4.6 23.7 94 -5.5 22.1
09:00 1011 29.85 840 24.81 -4.6 23.7 94 -5.5 22.2
09:05 1011 29.85 840 24.81 -4.6 23.8 94 -5.4 22.3
09:10 1011 29.85 840 24.81 -4.5 23.8 94 -5.4 22.2
09:15 1011 29.85 840 24.81 -4.5 23.9 94 -5.4 22.3
09:20 1011 29.85 840 24.81 -4.5 24 93 -5.4 22.4
09:25 1011 29.85 840 24.81 -4.5 24 93 -5.4 22.3
09:30 1011 29.85 840 24.81 -4.5 23.9 93 -5.4 22.3
09:35 1011 29.85 840 24.81 -4.4 24 93 -5.4 22.4
09:40 1011 29.85 840 24.81 -4.4 24.1 93 -5.4 22.3
09:45 1010 29.83 840 24.81 -4.4 24 93 -5.5 22.2
09:50 1010 29.83 840 24.81 -4.5 23.9 93 -5.5 22.1
09:55 1010 29.83 840 24.81 -4.6 23.7 93 -5.6 21.9
10:00 1010 29.83 840 24.81 -4.7 23.5 93 -5.7 21.8
10:05 1010 29.83 840 24.81 -4.8 23.4 93 -5.7 21.7
10:10 1011 29.85 840 24.81 -4.7 23.6 93 -5.6 21.9
10:15 1011 29.85 840 24.81 -4.6 23.8 93 -5.6 21.9
10:20 1010 29.83 840 24.81 -4.5 23.9 93 -5.5 22.1
10:25 1011 29.85 840 24.81 -4.2 24.4 92 -5.3 22.4
10:30 1011 29.85 840 24.81 -4 24.8 91 -5.3 22.4
10:35 1010 29.83 840 24.81 -4 24.8 91 -5.3 22.4
10:40 1011 29.85 840 24.81 -4 24.7 91 -5.3 22.4
10:45 1010 29.83 840 24.81 -4 24.7 91 -5.4 22.3
10:50 1010 29.83 840 24.81 -4.1 24.6 91 -5.4 22.4
10:55 1010 29.83 840 24.81 -4.1 24.7 91 -5.3 22.4
11:00 1010 29.83 840 24.81 -4 24.8 91 -5.3 22.5
11:05 1010 29.83 840 24.81 -3.9 25 90 -5.3 22.5
11:10 1010 29.83 840 24.81 -3.9 25 90 -5.3 22.5
11:15 1010 29.83 840 24.81 -3.9 24.9 90 -5.3 22.5
11:20 1010 29.83 840 24.81 -3.9 24.9 90 -5.3 22.5
11:25 1010 29.83 840 24.81 -3.8 25.2 90 -5.2 22.6
11:30 1010 29.83 840 24.81 -3.5 25.7 89 -5.1 22.8
11:35 1010 29.83 840 24.81 -3.2 26.3 87 -5 23
11:40 1010 29.83 840 24.81 -2.8 26.9 86 -4.9 23.3
11:45 1010 29.83 839 24.78 -2.6 27.4 84 -4.9 23.3
11:50 1010 29.83 839 24.78 -2.2 28.1 82 -4.8 23.4
11:55 1010 29.83 839 24.78 -1.7 29 80 -4.7 23.5
12:00 1010 29.83 839 24.78 -1.4 29.4 79 -4.6 23.7
12:05 1010 29.83 839 24.78 -1.2 29.8 78 -4.6 23.6
12:10 1010 29.83 839 24.78 -1.2 29.8 78 -4.6 23.6
12:15 1010 29.83 839 24.78 -1.1 30.1 79 -4.2 24.4
12:20 1010 29.83 839 24.78 -0.8 30.6 76 -4.6 23.8
12:25 1010 29.83 839 24.78 -1.1 30 78 -4.5 23.9
12:30 1010 29.83 839 24.78 -1.3 29.7 78 -4.6 23.8
12:35 1010 29.83 839 24.78 -1.5 29.3 79 -4.6 23.7
12:40 1010 29.83 839 24.78 -1.5 29.3 80 -4.6 23.8
12:45 1010 29.83 839 24.78 -0.8 30.5 77 -4.4 24
12:50 1010 29.83 839 24.78 -0.3 31.4 73 -4.6 23.8
12:55 1010 29.83 839 24.78 -0.7 30.7 77 -4.2 24.4
13:00 1009 29.8 839 24.78 -0.8 30.5 75 -4.7 23.6
13:05 1009 29.8 839 24.78 -0.9 30.3 77 -4.5 23.8
13:10 1009 29.8 838 24.75 -1 30.2 75 -4.9 23.1
13:15 1009 29.8 838 24.75 -1.1 29.9 77 -4.8 23.4
13:20 1009 29.8 838 24.75 -1.4 29.5 76 -5 23
13:25 1009 29.8 838 24.75 -1.9 28.7 79 -5 22.9
13:30 1009 29.8 838 24.75 -2.1 28.2 81 -5 23
13:35 1009 29.8 838 24.75 -2 28.4 80 -5 23
13:40 1009 29.8 838 24.75 -1.9 28.7 79 -5.1 22.9
13:45 1009 29.8 838 24.75 -1.6 29 78 -5 23.1
13:50 1009 29.8 838 24.75 -1.6 29.1 78 -4.9 23.1
13:55 1009 29.8 838 24.75 -1.6 29.1 79 -4.8 23.4
14:00 1009 29.8 838 24.75 -1.6 29.2 77 -5 23
14:05 1009 29.8 838 24.75 -1.2 29.8 77 -4.8 23.3
14:10 1009 29.8 838 24.75 -1.1 30.1 77 -4.6 23.7
14:15 1009 29.8 838 24.75 -1.7 29 80 -4.6 23.7
14:20 1009 29.8 838 24.75 -2.1 28.2 84 -4.5 23.9
14:25 1009 29.8 838 24.75 -1.9 28.6 81 -4.8 23.4
14:30 1009 29.8 838 24.75 -1.5 29.2 79 -4.8 23.4
14:35 1009 29.8 838 24.75 -1.5 29.3 80 -4.6 23.8
14:40 1009 29.8 838 24.75 -2 28.4 82 -4.6 23.6
14:45 1009 29.8 838 24.75 -2.1 28.3 82 -4.8 23.4
14:50 1009 29.8 838 24.75 -2.5 27.5 85 -4.7 23.5
14:55 1009 29.8 838 24.75 -2.3 27.9 82 -4.9 23.1
15:00 1009 29.8 838 24.75 -1.8 28.7 80 -4.9 23.1
15:05 1009 29.8 838 24.75 -1.6 29.2 78 -4.8 23.3
15:10 1009 29.8 838 24.75 -1.6 29.1 80 -4.7 23.6
15:15 1008 29.77 838 24.75 -2.2 28.1 81 -5.1 22.9
15:20 1008 29.77 838 24.75 -2.5 27.6 83 -4.9 23.1
15:25 1008 29.77 838 24.75 -2.5 27.4 83 -5 23
15:30 1008 29.77 838 24.75 -2.5 27.5 83 -5.1 22.8
15:35 1008 29.77 837 24.72 -2.3 27.8 82 -5 23
15:40 1008 29.77 837 24.72 -2.4 27.7 82 -5.1 22.9
15:45 1008 29.77 837 24.72 -2.1 28.3 81 -5 23.1
15:50 1008 29.77 837 24.72 -1.3 29.6 75 -5.2 22.6
15:55 1008 29.77 837 24.72 -0.2 31.7 69 -5.1 22.8
16:00 1008 29.77 837 24.72 0.2 32.3 73 -4.1 24.5
16:05 1008 29.77 837 24.72 -1.3 29.7 78 -4.7 23.6
16:10 1008 29.77 837 24.72 -1.7 29 78 -5.1 22.9
16:15 1008 29.77 837 24.72 -1.7 28.9 77 -5.1 22.7
16:20 1008 29.77 837 24.72 -1.2 29.9 75 -5 23
16:25 1008 29.77 837 24.72 -1.5 29.3 77 -5 23
16:30 1008 29.77 837 24.72 -1.8 28.8 79 -5 23.1
16:35 1008 29.77 837 24.72 -2.1 28.2 81 -5 23
16:40 1008 29.77 837 24.72 -2.3 27.8 82 -5 23
16:45 1008 29.77 837 24.72 -2.2 28 81 -5 23
16:50 1008 29.77 837 24.72 -2.2 28.1 80 -5.2 22.7
16:55 1008 29.77 837 24.72 -2 28.4 79 -5.2 22.7
17:00 1008 29.77 837 24.72 -2.1 28.3 80 -5 23
17:05 1008 29.77 837 24.72 -1.9 28.5 77 -5.4 22.3
17:10 1008 29.77 837 24.72 -2.3 27.9 81 -5.1 22.9
17:15 1008 29.77 837 24.72 -3.2 26.3 85 -5.3 22.4
17:20 1008 29.77 837 24.72 -3.5 25.7 86 -5.5 22.1
17:25 1008 29.77 837 24.72 -3.6 25.6 87 -5.4 22.2
17:30 1008 29.77 837 24.72 -3.8 25.2 89 -5.3 22.4
17:35 1008 29.77 837 24.72 -3.8 25.1 89 -5.3 22.4
17:40 1008 29.77 837 24.72 -3.8 25.1 89 -5.3 22.4
17:45 1008 29.77 837 24.72 -3.9 24.9 90 -5.3 22.5
17:50 1008 29.77 837 24.72 -4.1 24.7 91 -5.3 22.5
17:55 1008 29.77 837 24.72 -4.2 24.5 92 -5.3 22.5
18:00 1008 29.77 837 24.72 -4.3 24.3 92 -5.4 22.4
18:05 1008 29.77 837 24.72 -4.4 24.1 93 -5.4 22.3
18:10 1008 29.77 837 24.72 -4.5 23.9 92 -5.6 22
18:15 1008 29.77 837 24.72 -4.6 23.6 92 -5.7 21.7
18:20 1007 29.74 837 24.72 -4.8 23.4 93 -5.8 21.6
18:25 1007 29.74 837 24.72 -4.8 23.4 93 -5.7 21.7
18:30 1007 29.74 837 24.72 -4.9 23.1 93 -5.9 21.3
18:35 1007 29.74 837 24.72 -5.3 22.4 94 -6.2 20.8
18:40 1007 29.74 837 24.72 -5.5 22.2 94 -6.2 20.8
18:45 1007 29.74 836 24.69 -5.6 21.9 93 -6.5 20.2
18:50 1007 29.74 836 24.69 -5.7 21.7 93 -6.6 20
18:55 1007 29.74 836 24.69 -5.6 22 95 -6.3 20.6
19:00 1007 29.74 836 24.69 -5.4 22.3 94 -6.2 20.8
19:05 1007 29.74 836 24.69 -5.4 22.3 93 -6.3 20.6
19:10 1007 29.74 836 24.69 -5.5 22.2 93 -6.5 20.4
19:15 1007 29.74 836 24.69 -5.5 22.1 87 -7.3 18.9
19:20 1007 29.74 836 24.69 -5.8 21.5 87 -7.6 18.3
19:25 1007 29.74 836 24.69 -5.8 21.6 88 -7.5 18.5
19:30 1007 29.74 836 24.69 -5.6 21.9 84 -7.9 17.9
19:35 1007 29.74 836 24.69 -6.1 21 84 -8.4 16.9
19:40 1007 29.74 836 24.69 -6.8 19.8 87 -8.7 16.4
19:45 1007 29.74 836 24.69 -6.8 19.7 85 -9 15.9
19:50 1007 29.74 836 24.69 -7 19.3 86 -9.1 15.7
19:55 1007 29.74 836 24.69 -6.8 19.8 84 -9.1 15.7
20:00 1007 29.74 836 24.69 -6.5 20.3 83 -8.9 16.1
20:05 1007 29.74 836 24.69 -6.4 20.6 82 -9 15.9
20:10 1007 29.74 836 24.69 -6.5 20.3 82 -9.1 15.7
20:15 1007 29.74 836 24.69 -6.5 20.3 82 -9.1 15.6
20:20 1007 29.74 836 24.69 -6.6 20.2 82 -9.2 15.5
20:25 1007 29.74 836 24.69 -6.8 19.7 84 -9.1 15.6
20:30 1007 29.74 836 24.69 -6.8 19.7 85 -9 15.8
20:35 1007 29.74 836 24.69 -6.6 20.1 81 -9.4 15.1
20:40 1007 29.74 836 24.69 -6.5 20.3 81 -9.3 15.2
20:45 1007 29.74 836 24.69 -6.7 19.9 82 -9.3 15.2
20:50 1007 29.74 836 24.69 -6.7 19.9 82 -9.4 15.1
20:55 1006 29.71 836 24.69 -6.6 20.1 81 -9.4 15.1
21:00 1006 29.71 836 24.69 -6.7 19.9 81 -9.5 15
21:05 1006 29.71 836 24.69 -6.9 19.6 80 -9.7 14.5
21:10 1006 29.71 836 24.69 -7.1 19.2 80 -10 14.1
21:15 1006 29.71 836 24.69 -7.1 19.2 80 -10 13.9
21:20 1006 29.71 836 24.69 -7.1 19.2 80 -9.9 14.1
21:25 1006 29.71 836 24.69 -6.4 20.5 79 -9.5 14.9
21:30 1006 29.71 835 24.66 -6.4 20.5 78 -9.7 14.5
21:35 1006 29.71 835 24.66 -6.4 20.4 77 -9.8 14.4
21:40 1006 29.71 835 24.66 -6.5 20.3 77 -9.9 14.2
21:45 1006 29.71 835 24.66 -6.5 20.3 77 -9.9 14.2
21:50 1006 29.71 835 24.66 -6.4 20.5 76 -10.1 13.9
21:55 1006 29.71 835 24.66 -6.5 20.4 76 -10 14
22:00 1006 29.71 835 24.66 -6.9 19.5 77 -10.3 13.5
22:05 1006 29.71 835 24.66 -7.2 19.1 79 -10.3 13.4
22:10 1006 29.71 835 24.66 -7.3 18.8 79 -10.4 13.3
22:15 1006 29.71 835 24.66 -7.6 18.3 79 -10.6 12.9
22:20 1006 29.71 835 24.66 -7.6 18.4 80 -10.5 13.1
22:25 1006 29.71 835 24.66 -7.5 18.5 79 -10.5 13
22:30 1006 29.71 835 24.66 -7.4 18.7 78 -10.5 13.1
22:35 1006 29.71 835 24.66 -7.6 18.4 80 -10.4 13.2
22:40 1006 29.71 835 24.66 -7.6 18.4 79 -10.6 12.9
22:45 1006 29.71 835 24.66 -7.7 18.2 79 -10.7 12.7
22:50 1006 29.71 835 24.66 -7.9 17.8 79 -10.9 12.4
22:55 1006 29.71 835 24.66 -7.9 17.8 80 -10.8 12.6
23:00 1006 29.71 835 24.66 -7.6 18.4 77 -10.9 12.4
23:05 1006 29.71 835 24.66 -7.7 18.2 78 -10.9 12.3
23:10 1006 29.71 835 24.66 -7.8 18 78 -11 12.2
23:15 1006 29.71 835 24.66 -7.9 17.9 78 -11.1 12.1
23:20 1006 29.71 835 24.66 -7.9 17.8 78 -11 12.2
23:25 1006 29.71 835 24.66 -8 17.7 78 -11.2 11.8
23:30 1006 29.71 835 24.66 -7.9 17.8 78 -11.1 12.1
23:35 1006 29.71 835 24.66 -7.8 18 77 -11.2 11.9
23:40 1006 29.71 835 24.66 -7.7 18.2 77 -11 12.2
23:45 1006 29.71 835 24.66 -7.7 18.1 77 -11 12.2
23:50 1006 29.71 835 24.66 -7.9 17.9 77 -11.2 11.9
23:55 1006 29.71 835 24.66 -7.9 17.7 78 -11.2 11.9
24:00 1006 29.71 835 24.66 -8.1 17.5 78 -11.2 11.8